createdAt,value
2022-08-04T00:00:11.286Z,2.60
2022-08-04T00:03:10.040Z,2.80
2022-08-04T00:06:23.061Z,2.60
2022-08-04T00:08:56.192Z,2.67
2022-08-04T00:11:26.028Z,3.10
2022-08-04T00:14:04.576Z,2.78
2022-08-04T00:16:38.063Z,3.05
2022-08-04T00:19:12.104Z,3.40
2022-08-04T00:21:42.220Z,2.90
2022-08-04T00:24:13.005Z,2.70
2022-08-04T00:26:41.126Z,3.40
2022-08-04T00:29:08.170Z,3.13
2022-08-04T00:31:56.002Z,3.05
2022-08-04T00:34:25.404Z,2.97
2022-08-04T00:36:54.573Z,2.70
2022-08-04T00:39:21.883Z,3.00
2022-08-04T00:42:15.467Z,2.97
2022-08-04T00:45:09.483Z,3.20
2022-08-04T00:47:54.836Z,3.22
2022-08-04T00:50:44.868Z,3.55
2022-08-04T00:53:38.287Z,3.38
2022-08-04T00:56:45.013Z,3.67
2022-08-04T00:59:37.952Z,2.97
2022-08-04T01:02:24.650Z,2.95
2022-08-04T01:05:05.357Z,2.80
2022-08-04T01:07:43.845Z,2.78
2022-08-04T01:10:33.767Z,2.88
2022-08-04T01:13:52.322Z,2.85
2022-08-04T01:16:24.705Z,3.33
2022-08-04T01:18:51.402Z,3.40
2022-08-04T01:21:29.960Z,3.33
2022-08-04T01:24:28.035Z,3.65
2022-08-04T01:27:14.404Z,3.55
2022-08-04T01:29:48.769Z,3.22
2022-08-04T01:32:31.651Z,2.97
2022-08-04T01:35:15.388Z,3.35
2022-08-04T01:38:18.176Z,3.38
2022-08-04T01:40:51.802Z,3.30
2022-08-04T01:43:19.991Z,3.70
2022-08-04T01:45:51.795Z,3.53
2022-08-04T01:48:27.226Z,3.58
2022-08-04T01:50:57.098Z,3.75
2022-08-04T01:53:30.523Z,4.00
2022-08-04T01:55:57.730Z,3.38
2022-08-04T01:58:25.286Z,3.80
2022-08-04T02:01:08.170Z,4.05
2022-08-04T02:04:18.103Z,4.10
2022-08-04T02:06:49.546Z,4.10
2022-08-04T02:09:26.101Z,4.20
2022-08-04T02:12:16.577Z,4.22
2022-08-04T02:15:13.836Z,3.70
2022-08-04T02:17:43.472Z,3.83
2022-08-04T02:20:23.018Z,4.15
2022-08-04T02:23:01.321Z,4.10
2022-08-04T02:25:32.712Z,4.00
2022-08-04T02:28:02.221Z,3.90
2022-08-04T02:30:34.403Z,3.63
2022-08-04T02:33:04.363Z,4.10
2022-08-04T02:35:36.456Z,3.90
2022-08-04T02:38:51.129Z,3.78
2022-08-04T02:41:19.991Z,3.83
2022-08-04T02:43:50.893Z,3.70
2022-08-04T02:46:20.917Z,3.83
2022-08-04T02:48:49.778Z,3.80
2022-08-04T02:51:19.965Z,3.65
2022-08-04T02:53:49.768Z,3.45
2022-08-04T02:56:20.118Z,3.45
2022-08-04T02:58:51.988Z,3.72
2022-08-04T03:01:18.797Z,3.85
2022-08-04T03:04:06.581Z,3.70
2022-08-04T03:07:15.605Z,3.40
2022-08-04T03:10:21.327Z,3.78
2022-08-04T03:13:18.871Z,3.28
2022-08-04T03:16:01.194Z,3.40
2022-08-04T03:18:57.494Z,3.40
2022-08-04T03:21:49.506Z,3.50
2022-08-04T03:25:07.740Z,3.13
2022-08-04T03:27:52.538Z,3.20
2022-08-04T03:30:43.405Z,3.30
2022-08-04T03:33:52.265Z,4.22
2022-08-04T03:36:34.125Z,4.32
2022-08-04T03:39:18.223Z,3.90
2022-08-04T03:42:08.010Z,3.63
2022-08-04T03:44:34.975Z,3.35
2022-08-04T03:47:27.452Z,3.58
2022-08-04T03:50:13.015Z,3.58
2022-08-04T03:53:19.650Z,3.33
2022-08-04T03:55:49.003Z,3.35
2022-08-04T03:58:37.259Z,3.08
2022-08-04T04:02:01.035Z,3.40
2022-08-04T04:04:46.120Z,3.25
2022-08-04T04:10:46.942Z,3.67
2022-08-04T04:13:38.016Z,3.10
2022-08-04T04:16:23.754Z,3.08
2022-08-04T04:19:08.470Z,3.72
2022-08-04T04:22:15.031Z,3.20
2022-08-04T04:25:33.985Z,2.70
2022-08-04T04:28:45.764Z,3.15
2022-08-04T04:31:47.191Z,2.92
2022-08-04T04:34:25.880Z,3.63
2022-08-04T04:37:16.240Z,2.80
2022-08-04T04:40:03.445Z,3.50
2022-08-04T04:42:59.241Z,3.30
2022-08-04T04:45:55.019Z,3.10
2022-08-04T04:48:47.875Z,2.95
2022-08-04T04:51:35.916Z,3.30
2022-08-04T04:54:14.648Z,3.00
2022-08-04T04:56:47.114Z,3.17
2022-08-04T04:59:18.792Z,3.20
2022-08-04T05:01:45.415Z,3.67
2022-08-04T05:04:34.267Z,3.75
2022-08-04T05:07:25.659Z,4.00
2022-08-04T05:09:59.933Z,3.47
2022-08-04T05:14:33.169Z,3.63
2022-08-04T05:15:33.422Z,4.15
2022-08-04T05:18:02.765Z,3.58
2022-08-04T05:20:38.684Z,4.25
2022-08-04T05:23:16.276Z,3.60
2022-08-04T05:26:00.196Z,3.80
2022-08-04T05:28:43.123Z,3.67
2022-08-04T05:31:15.883Z,3.60
2022-08-04T05:33:45.252Z,3.70
2022-08-04T05:36:23.848Z,3.70
2022-08-04T05:38:59.814Z,3.28
2022-08-04T05:44:15.121Z,3.63
2022-08-04T05:46:43.779Z,3.58
2022-08-04T05:49:11.096Z,3.22
2022-08-04T05:51:46.084Z,3.20
2022-08-04T05:54:14.027Z,3.20
2022-08-04T05:56:42.161Z,3.30
2022-08-04T05:59:12.101Z,3.50
2022-08-04T06:01:55.485Z,3.97
2022-08-04T06:04:29.808Z,3.75
2022-08-04T06:06:56.674Z,3.28
2022-08-04T06:09:23.580Z,3.20
2022-08-04T06:12:00.428Z,3.30
2022-08-04T06:14:39.340Z,3.58
2022-08-04T06:18:33.367Z,3.72
2022-08-04T06:20:02.708Z,2.72
2022-08-04T06:22:44.707Z,2.88
2022-08-04T06:25:15.628Z,3.30
2022-08-04T06:27:43.218Z,3.03
2022-08-04T06:30:14.368Z,2.47
2022-08-04T06:32:49.910Z,2.80
2022-08-04T06:35:18.180Z,2.60
2022-08-04T06:37:46.990Z,2.58
2022-08-04T06:40:30.713Z,2.35
2022-08-04T06:43:01.485Z,3.03
2022-08-04T06:45:29.330Z,2.50
2022-08-04T06:47:57.117Z,3.22
2022-08-04T06:51:30.618Z,2.72
2022-08-04T06:53:11.986Z,2.78
2022-08-04T06:55:40.764Z,2.95
2022-08-04T06:58:08.918Z,3.20
2022-08-04T07:00:37.231Z,3.00
2022-08-04T07:03:05.417Z,3.10
2022-08-04T07:05:32.750Z,3.28
2022-08-04T07:07:59.778Z,2.70
2022-08-04T07:10:30.516Z,2.50
2022-08-04T07:12:58.286Z,3.03
2022-08-04T07:15:25.694Z,2.67
2022-08-04T07:17:54.479Z,2.22
2022-08-04T07:20:35.218Z,2.28
2022-08-04T07:23:04.508Z,2.38
2022-08-04T07:26:00.755Z,2.58
2022-08-04T07:28:20.113Z,2.85
2022-08-04T07:30:49.070Z,2.58
2022-08-04T07:33:19.655Z,2.45
2022-08-04T07:36:09.412Z,3.08
2022-08-04T07:38:37.939Z,2.63
2022-08-04T07:41:36.666Z,2.45
2022-08-04T07:44:04.772Z,2.40
2022-08-04T07:46:31.740Z,2.17
2022-08-04T07:49:01.202Z,2.65
2022-08-04T07:51:29.232Z,2.05
2022-08-04T07:53:57.134Z,2.30
2022-08-04T07:56:24.943Z,2.22
2022-08-04T07:58:51.667Z,2.28
2022-08-04T08:01:20.124Z,1.90
2022-08-04T08:03:47.931Z,2.40
2022-08-04T08:06:17.295Z,2.25
2022-08-04T08:09:00.917Z,2.50
2022-08-04T08:12:35.111Z,2.05
2022-08-04T08:14:28.147Z,3.00
2022-08-04T08:16:54.891Z,2.42
2022-08-04T08:19:21.807Z,2.50
2022-08-04T08:21:59.335Z,2.70
2022-08-04T08:24:31.388Z,3.13
2022-08-04T08:26:58.847Z,2.60
2022-08-04T08:29:26.733Z,2.58
2022-08-04T08:31:56.256Z,2.50
2022-08-04T08:34:27.580Z,2.10
2022-08-04T08:37:13.790Z,2.22
2022-08-04T08:40:12.589Z,2.97
2022-08-04T08:42:45.478Z,2.70
2022-08-04T08:45:38.394Z,2.50
2022-08-04T08:48:15.737Z,2.70
2022-08-04T08:50:57.925Z,2.40
2022-08-04T08:53:43.381Z,2.45
2022-08-04T08:56:13.212Z,2.30
2022-08-04T08:59:18.186Z,2.45
2022-08-04T09:02:02.122Z,2.42
2022-08-04T09:05:08.289Z,2.28
2022-08-04T09:08:10.367Z,2.00
2022-08-04T09:10:46.418Z,1.88
2022-08-04T09:13:47.369Z,2.00
2022-08-04T09:16:45.188Z,1.80
2022-08-04T09:19:38.567Z,2.20
2022-08-04T09:22:34.855Z,1.70
2022-08-04T09:25:09.471Z,1.95
2022-08-04T09:28:06.059Z,2.00
2022-08-04T09:30:45.948Z,1.73
2022-08-04T09:33:44.454Z,1.60
2022-08-04T09:36:27.925Z,1.83
2022-08-04T09:39:10.065Z,1.70
2022-08-04T09:41:49.213Z,1.70
2022-08-04T09:44:52.101Z,2.08
2022-08-04T09:48:02.788Z,1.73
2022-08-04T09:50:39.313Z,1.88
2022-08-04T09:53:36.434Z,1.88
2022-08-04T09:56:06.166Z,2.13
2022-08-04T09:59:06.778Z,1.90
2022-08-04T10:01:35.028Z,1.88
2022-08-04T10:04:05.895Z,2.10
2022-08-04T10:06:38.658Z,1.70
2022-08-04T10:09:42.923Z,1.80
2022-08-04T10:12:45.111Z,1.75
2022-08-04T10:15:20.757Z,1.80
2022-08-04T10:17:54.270Z,2.00
2022-08-04T10:20:44.937Z,2.05
2022-08-04T10:23:55.120Z,2.10
2022-08-04T10:26:29.341Z,1.80
2022-08-04T10:29:03.450Z,1.77
2022-08-04T10:31:35.173Z,2.00
2022-08-04T10:34:11.875Z,2.45
2022-08-04T10:36:48.911Z,1.55
2022-08-04T10:39:41.906Z,1.50
2022-08-04T10:42:19.408Z,1.85
2022-08-04T10:45:11.083Z,1.80
2022-08-04T10:47:58.721Z,1.65
2022-08-04T10:50:29.223Z,1.95
2022-08-04T10:53:09.663Z,1.50
2022-08-04T10:56:07.718Z,1.60
2022-08-04T10:58:47.499Z,1.77
2022-08-04T11:02:00.660Z,1.90
2022-08-04T11:04:53.223Z,1.90
2022-08-04T11:07:22.028Z,1.42
2022-08-04T11:09:49.098Z,1.80
2022-08-04T11:12:26.326Z,1.67
2022-08-04T11:15:06.558Z,1.65
2022-08-04T11:17:38.159Z,1.80
2022-08-04T11:20:35.019Z,2.05
2022-08-04T11:23:10.039Z,1.85
2022-08-04T11:25:52.070Z,1.88
2022-08-04T11:28:23.290Z,1.80
2022-08-04T11:31:08.442Z,1.80
2022-08-04T11:33:47.791Z,1.60
2022-08-04T11:36:25.014Z,1.80
2022-08-04T11:38:57.943Z,1.83
2022-08-04T11:41:40.676Z,1.60
2022-08-04T11:44:12.783Z,1.85
2022-08-04T11:46:48.308Z,1.55
2022-08-04T11:49:56.857Z,1.67
2022-08-04T11:52:26.768Z,1.50
2022-08-04T11:54:55.192Z,1.60
2022-08-04T11:57:25.685Z,1.90
2022-08-04T12:00:07.401Z,1.70
2022-08-04T12:03:09.605Z,1.88
2022-08-04T12:05:47.176Z,1.77
2022-08-04T12:08:51.733Z,1.88
2022-08-04T12:11:46.479Z,1.70
2022-08-04T12:14:39.079Z,2.20
2022-08-04T12:17:06.698Z,1.70
2022-08-04T12:20:04.035Z,1.92
2022-08-04T12:22:43.672Z,1.80
2022-08-04T12:25:16.127Z,1.88
2022-08-04T12:28:15.202Z,1.80
2022-08-04T12:30:57.310Z,1.60
2022-08-04T12:34:02.705Z,1.77
2022-08-04T12:36:55.468Z,1.70
2022-08-04T12:39:25.858Z,1.90
2022-08-04T12:41:58.661Z,1.67
2022-08-04T12:44:33.452Z,1.77
2022-08-04T12:47:26.615Z,2.00
2022-08-04T12:50:03.557Z,1.48
2022-08-04T12:55:31.781Z,1.80
2022-08-04T12:58:01.576Z,1.80
2022-08-04T13:00:39.695Z,2.30
2022-08-04T13:03:11.357Z,1.85
2022-08-04T13:05:41.004Z,1.70
2022-08-04T13:08:10.051Z,1.75
2022-08-04T13:10:47.010Z,3.00
2022-08-04T13:13:27.427Z,1.85
2022-08-04T13:15:59.728Z,1.52
2022-08-04T13:21:20.299Z,2.00
2022-08-04T13:24:10.976Z,1.92
2022-08-04T13:26:57.186Z,1.95
2022-08-04T13:30:00.675Z,2.10
2022-08-04T13:32:31.446Z,1.98
2022-08-04T13:35:01.387Z,1.88
2022-08-04T13:37:35.887Z,2.40
2022-08-04T13:40:05.968Z,2.00
2022-08-04T13:42:35.745Z,1.65
2022-08-04T13:45:05.872Z,1.73
2022-08-04T13:47:37.162Z,1.70
2022-08-04T13:50:15.969Z,1.65
2022-08-04T13:52:44.088Z,1.80
2022-08-04T13:55:28.542Z,1.30
2022-08-04T13:57:58.527Z,1.88
2022-08-04T14:00:29.441Z,1.38
2022-08-04T14:03:03.537Z,1.70
2022-08-04T14:06:16.074Z,1.80
2022-08-04T14:08:48.657Z,1.80
2022-08-04T14:12:04.775Z,1.80
2022-08-04T14:14:24.876Z,2.10
2022-08-04T14:17:19.722Z,1.90
2022-08-04T14:19:50.265Z,2.05
2022-08-04T14:22:25.959Z,1.90
2022-08-04T14:25:16.087Z,2.38
2022-08-04T14:27:58.232Z,1.90
2022-08-04T14:30:36.835Z,1.63
2022-08-04T14:36:01.711Z,1.65
2022-08-04T14:38:46.721Z,1.80
2022-08-04T14:41:15.225Z,1.90
2022-08-04T14:43:53.654Z,1.60
2022-08-04T14:46:21.775Z,1.70
2022-08-04T14:49:10.262Z,1.75
2022-08-04T14:51:51.876Z,1.77
2022-08-04T14:54:30.659Z,1.85
2022-08-04T14:57:08.642Z,1.60
2022-08-04T14:59:59.509Z,2.00
2022-08-04T15:02:30.107Z,1.90
2022-08-04T15:04:57.747Z,1.70
2022-08-04T15:07:25.467Z,1.70
2022-08-04T15:09:52.632Z,1.75
2022-08-04T15:12:20.622Z,1.73
2022-08-04T15:14:47.679Z,1.60
2022-08-04T15:17:29.082Z,1.92
2022-08-04T15:19:58.153Z,1.95
2022-08-04T15:22:25.255Z,1.52
2022-08-04T15:24:55.541Z,1.55
2022-08-04T15:27:29.850Z,1.58
2022-08-04T15:30:02.308Z,1.50
2022-08-04T15:32:32.792Z,1.70
2022-08-04T15:35:12.618Z,1.70
2022-08-04T15:38:05.850Z,1.40
2022-08-04T15:41:04.576Z,1.40
2022-08-04T15:44:06.454Z,1.77
2022-08-04T15:46:51.062Z,1.75
2022-08-04T15:49:22.687Z,1.60
2022-08-04T15:52:11.816Z,1.55
2022-08-04T15:54:39.875Z,1.60
2022-08-04T15:57:10.013Z,1.70
2022-08-04T15:59:55.584Z,1.80
2022-08-04T16:02:48.827Z,1.80
2022-08-04T16:05:18.054Z,1.80
2022-08-04T16:08:04.446Z,1.40
2022-08-04T16:10:31.087Z,1.83
2022-08-04T16:13:04.381Z,1.90
2022-08-04T16:15:42.679Z,1.70
2022-08-04T16:18:25.739Z,1.75
2022-08-04T16:20:59.128Z,1.50
2022-08-04T16:23:56.910Z,1.80
2022-08-04T16:26:38.264Z,1.40
2022-08-04T16:29:28.284Z,1.67
2022-08-04T16:32:16.155Z,1.67
2022-08-04T16:34:55.167Z,1.60
2022-08-04T16:37:34.409Z,1.65
2022-08-04T16:40:38.051Z,1.90
2022-08-04T16:43:29.354Z,1.63
2022-08-04T16:46:04.537Z,2.05
2022-08-04T16:48:35.864Z,1.77
2022-08-04T16:51:06.696Z,1.70
2022-08-04T16:53:53.172Z,1.50
2022-08-04T16:59:12.281Z,1.40
2022-08-04T17:01:50.478Z,1.63
2022-08-04T17:04:17.732Z,1.77
2022-08-04T17:06:46.621Z,1.50
2022-08-04T17:09:16.294Z,1.58
2022-08-04T17:11:44.405Z,1.42
2022-08-04T17:14:11.638Z,1.50
2022-08-04T17:16:42.957Z,1.70
2022-08-04T17:19:20.405Z,1.77
2022-08-04T17:22:03.014Z,1.48
2022-08-04T17:24:33.117Z,1.90
2022-08-04T17:27:04.545Z,1.75
2022-08-04T17:29:49.896Z,1.60
2022-08-04T17:32:18.540Z,1.60
2022-08-04T17:37:52.854Z,1.30
2022-08-04T17:40:25.298Z,1.35
2022-08-04T17:44:01.377Z,1.67
2022-08-04T17:46:16.329Z,1.50
2022-08-04T17:49:08.896Z,1.63
2022-08-04T17:52:02.534Z,1.30
2022-08-04T17:54:37.030Z,1.50
2022-08-04T17:57:21.367Z,1.63
2022-08-04T17:59:58.773Z,1.50
2022-08-04T18:02:33.466Z,1.40
2022-08-04T18:05:07.904Z,2.00
2022-08-04T18:08:39.780Z,1.50
2022-08-04T18:10:52.020Z,1.60
2022-08-04T18:13:27.971Z,1.48
2022-08-04T18:16:14.618Z,1.42
2022-08-04T18:19:31.406Z,1.38
2022-08-04T18:22:01.320Z,1.67
2022-08-04T18:24:36.024Z,1.20
2022-08-04T18:27:18.289Z,1.52
2022-08-04T18:30:14.593Z,1.40
2022-08-04T18:32:33.775Z,1.52
2022-08-04T18:35:05.073Z,1.77
2022-08-04T18:38:05.146Z,1.55
2022-08-04T18:40:30.299Z,1.58
2022-08-04T18:43:02.345Z,1.48
2022-08-04T18:45:33.843Z,1.45
2022-08-04T18:48:04.213Z,1.70
2022-08-04T18:51:09.519Z,1.45
2022-08-04T18:56:29.129Z,1.50
2022-08-04T18:59:03.715Z,1.70
2022-08-04T19:02:13.756Z,1.55
2022-08-04T19:04:34.062Z,1.90
2022-08-04T19:07:24.624Z,1.50
2022-08-04T19:09:57.931Z,1.60
2022-08-04T19:12:27.090Z,1.70
2022-08-04T19:15:08.734Z,2.15
2022-08-04T19:17:55.226Z,2.10
2022-08-04T19:20:28.100Z,2.17
2022-08-04T19:24:29.483Z,2.75
2022-08-04T19:25:58.820Z,2.08
2022-08-04T19:28:34.924Z,2.03
2022-08-04T19:31:04.463Z,2.00
2022-08-04T19:33:59.280Z,1.90
2022-08-04T19:36:19.020Z,2.00
2022-08-04T19:38:46.154Z,2.35
2022-08-04T19:41:15.438Z,2.20
2022-08-04T19:43:47.004Z,2.25
2022-08-04T19:46:15.115Z,2.33
2022-08-04T19:48:44.776Z,2.30
2022-08-04T19:51:29.210Z,2.05
2022-08-04T19:54:04.275Z,2.20
2022-08-04T19:56:40.632Z,2.78
2022-08-04T19:59:09.436Z,2.00
2022-08-04T20:01:44.217Z,2.00
2022-08-04T20:04:12.801Z,1.90
2022-08-04T20:06:39.668Z,1.90
2022-08-04T20:09:24.950Z,2.10
2022-08-04T20:11:56.448Z,2.20
2022-08-04T20:14:32.141Z,2.10
2022-08-04T20:17:01.647Z,2.45
2022-08-04T20:19:28.324Z,2.35
2022-08-04T20:21:57.594Z,2.30
2022-08-04T20:24:38.266Z,2.22
2022-08-04T20:27:14.593Z,2.10
2022-08-04T20:29:48.747Z,2.40
2022-08-04T20:32:21.926Z,2.40
2022-08-04T20:34:51.414Z,3.00
2022-08-04T20:37:19.491Z,2.78
2022-08-04T20:39:54.403Z,2.53
2022-08-04T20:42:27.710Z,2.42
2022-08-04T20:45:01.387Z,2.30
2022-08-04T20:47:35.017Z,2.35
2022-08-04T20:50:09.114Z,2.10
2022-08-04T20:52:37.196Z,2.38
2022-08-04T20:55:05.471Z,2.05
2022-08-04T20:57:47.606Z,2.22
2022-08-04T21:00:26.549Z,1.90
2022-08-04T21:02:57.179Z,2.20
2022-08-04T21:05:23.831Z,2.10
2022-08-04T21:07:56.394Z,2.08
2022-08-04T21:10:24.647Z,2.03
2022-08-04T21:12:53.450Z,2.10
2022-08-04T21:15:24.941Z,2.20
2022-08-04T21:17:57.531Z,2.40
2022-08-04T21:20:30.163Z,2.58
2022-08-04T21:25:50.823Z,2.08
2022-08-04T21:28:20.609Z,2.20
2022-08-04T21:30:54.636Z,2.25
2022-08-04T21:33:24.610Z,2.47
2022-08-04T21:36:11.817Z,2.22
2022-08-04T21:38:39.383Z,2.55
2022-08-04T21:41:09.122Z,2.78
2022-08-04T21:43:42.403Z,2.38
2022-08-04T21:46:10.439Z,2.13
2022-08-04T21:48:38.551Z,2.40
2022-08-04T21:51:56.953Z,3.10
2022-08-04T21:54:06.574Z,2.60
2022-08-04T21:56:34.139Z,2.60
2022-08-04T21:59:02.597Z,2.35
2022-08-04T22:01:50.358Z,2.28
2022-08-04T22:04:19.406Z,2.67
2022-08-04T22:06:51.635Z,2.22
2022-08-04T22:09:22.077Z,2.40
2022-08-04T22:11:51.066Z,2.42
2022-08-04T22:14:28.867Z,2.55
2022-08-04T22:16:58.473Z,2.40
2022-08-04T22:19:49.779Z,2.45
2022-08-04T22:22:13.471Z,2.13
2022-08-04T22:24:40.368Z,2.50
2022-08-04T22:27:11.148Z,2.53
2022-08-04T22:29:39.242Z,2.38
2022-08-04T22:32:11.344Z,2.10
2022-08-04T22:34:40.070Z,2.80
2022-08-04T22:37:12.765Z,2.55
2022-08-04T22:39:56.828Z,2.30
2022-08-04T22:42:24.287Z,2.10
2022-08-04T22:44:52.110Z,2.50
2022-08-04T22:47:20.227Z,2.60
2022-08-04T22:50:01.599Z,2.30
2022-08-04T22:52:37.147Z,2.35
2022-08-04T22:55:22.844Z,2.40
2022-08-04T22:58:04.614Z,2.20
2022-08-04T23:00:32.698Z,2.30
2022-08-04T23:02:59.550Z,2.38
2022-08-04T23:05:29.229Z,2.25
2022-08-04T23:08:05.208Z,2.70
2022-08-04T23:10:32.372Z,2.55
2022-08-04T23:13:03.999Z,2.30
2022-08-04T23:15:33.634Z,2.80
2022-08-04T23:18:01.302Z,2.78
2022-08-04T23:20:32.948Z,2.63
2022-08-04T23:23:12.468Z,3.15
2022-08-04T23:26:07.743Z,2.45
2022-08-04T23:28:31.377Z,3.00
2022-08-04T23:30:58.100Z,2.75
2022-08-04T23:33:24.815Z,2.58
2022-08-04T23:36:11.889Z,2.63
2022-08-04T23:38:39.246Z,2.50
2022-08-04T23:41:13.534Z,2.97
2022-08-04T23:43:55.310Z,2.50
2022-08-04T23:46:23.012Z,3.30
2022-08-04T23:48:50.987Z,2.60
2022-08-04T23:51:19.104Z,2.35
2022-08-04T23:54:01.950Z,2.97
2022-08-04T23:56:31.800Z,2.85
2022-08-04T23:58:58.722Z,2.88
